createdAt,value
2023-01-03T00:01:57.074Z,100430.53
2023-01-03T00:04:25.812Z,100434.00
2023-01-03T00:06:56.262Z,100431.44
2023-01-03T00:09:26.276Z,100440.03
2023-01-03T00:12:13.304Z,100435.72
2023-01-03T00:14:44.632Z,100437.47
2023-01-03T00:17:14.205Z,100446.97
2023-01-03T00:19:45.296Z,100437.63
2023-01-03T00:22:17.780Z,100441.84
2023-01-03T00:24:48.309Z,100435.97
2023-01-03T00:27:17.699Z,100448.06
2023-01-03T00:29:46.561Z,100448.06
2023-01-03T00:32:15.444Z,100448.06
2023-01-03T00:34:47.032Z,100450.69
2023-01-03T00:37:17.386Z,100443.94
2023-01-03T00:39:46.319Z,100443.94
2023-01-03T00:42:15.139Z,100447.31
2023-01-03T00:44:43.824Z,100444.91
2023-01-03T00:47:12.391Z,100446.56
2023-01-03T00:49:41.116Z,100455.16
2023-01-03T00:52:09.803Z,100450.03
2023-01-03T00:54:39.872Z,100450.19
2023-01-03T00:57:08.512Z,100454.41
2023-01-03T00:59:37.167Z,100453.69
2023-01-03T01:02:06.080Z,100458.88
2023-01-03T01:04:34.936Z,100461.44
2023-01-03T01:07:05.402Z,100464.06
2023-01-03T01:09:39.062Z,100460.69
2023-01-03T01:12:09.111Z,100472.69
2023-01-03T01:14:37.880Z,100470.19
2023-01-03T01:17:11.094Z,100476.22
2023-01-03T01:19:42.980Z,100477.13
2023-01-03T01:22:13.135Z,100482.34
2023-01-03T01:24:43.466Z,100480.66
2023-01-03T01:27:12.302Z,100484.13
2023-01-03T01:29:41.281Z,100482.50
2023-01-03T01:32:09.938Z,100485.97
2023-01-03T01:34:39.120Z,100485.19
2023-01-03T01:37:07.745Z,100489.44
2023-01-03T01:39:36.444Z,100487.84
2023-01-03T01:42:30.971Z,100488.69
2023-01-03T01:45:01.205Z,100491.41
2023-01-03T01:47:40.319Z,100485.38
2023-01-03T01:50:21.411Z,100488.84
2023-01-03T01:53:01.319Z,100496.50
2023-01-03T01:55:37.887Z,100496.59
2023-01-03T01:58:10.182Z,100496.69
2023-01-03T02:00:40.073Z,100498.44
2023-01-03T02:03:09.288Z,100495.03
2023-01-03T02:05:43.110Z,100503.53
2023-01-03T02:08:12.003Z,100506.19
2023-01-03T02:11:19.023Z,100513.09
2023-01-03T02:13:59.927Z,100510.72
2023-01-03T02:16:48.394Z,100510.72
2023-01-03T02:19:54.803Z,100508.16
2023-01-03T02:23:23.068Z,100510.00
2023-01-03T02:26:39.183Z,100504.97
2023-01-03T02:29:29.672Z,100508.44
2023-01-03T02:32:05.130Z,100507.63
2023-01-03T02:34:43.376Z,100508.44
2023-01-03T02:37:21.406Z,100513.53
2023-01-03T02:39:59.796Z,100501.66
2023-01-03T02:42:54.567Z,100503.38
2023-01-03T02:45:49.455Z,100512.91
2023-01-03T02:48:32.139Z,100510.38
2023-01-03T02:51:04.795Z,100521.56
2023-01-03T02:53:38.994Z,100519.00
2023-01-03T02:56:12.412Z,100520.63
2023-01-03T02:58:45.266Z,100519.00
2023-01-03T03:01:15.837Z,100520.72
2023-01-03T03:03:47.698Z,100519.00
2023-01-03T03:06:24.595Z,100526.69
2023-01-03T03:08:53.521Z,100522.44
2023-01-03T03:11:41.278Z,100528.38
2023-01-03T03:14:15.672Z,100526.75
2023-01-03T03:16:51.083Z,100527.56
2023-01-03T03:19:46.454Z,100529.31
2023-01-03T03:22:43.617Z,100530.13
2023-01-03T03:25:18.031Z,100534.50
2023-01-03T03:28:08.700Z,100543.81
2023-01-03T03:30:42.338Z,100539.59
2023-01-03T03:33:13.839Z,100547.28
2023-01-03T03:35:50.903Z,100554.91
2023-01-03T03:38:24.408Z,100543.81
2023-01-03T03:41:18.612Z,100548.94
2023-01-03T03:44:22.634Z,100549.84
2023-01-03T03:47:05.038Z,100553.34
2023-01-03T03:49:41.291Z,100553.34
2023-01-03T03:52:16.660Z,100555.91
2023-01-03T03:54:51.952Z,100553.34
2023-01-03T03:57:28.268Z,100554.97
2023-01-03T04:00:01.931Z,100560.09
2023-01-03T04:02:34.254Z,100553.34
2023-01-03T04:05:09.388Z,100552.50
2023-01-03T04:07:40.138Z,100551.69
2023-01-03T04:10:10.798Z,100551.69
2023-01-03T04:12:39.545Z,100554.22
2023-01-03T04:15:09.635Z,100552.56
2023-01-03T04:17:38.302Z,100543.16
2023-01-03T04:20:07.988Z,100550.91
2023-01-03T04:22:38.278Z,100548.34
2023-01-03T04:25:08.354Z,100561.22
2023-01-03T04:27:37.026Z,100558.75
2023-01-03T04:30:07.495Z,100552.81
2023-01-03T04:32:36.145Z,100552.06
2023-01-03T04:35:05.111Z,100559.72
2023-01-03T04:37:34.206Z,100557.25
2023-01-03T04:40:04.498Z,100561.63
2023-01-03T04:42:50.672Z,100557.41
2023-01-03T04:45:19.419Z,100563.50
2023-01-03T04:47:48.119Z,100555.91
2023-01-03T04:50:16.847Z,100559.38
2023-01-03T04:52:45.554Z,100562.00
2023-01-03T04:55:15.705Z,100566.25
2023-01-03T04:57:44.390Z,100564.63
2023-01-03T05:00:14.558Z,100561.22
2023-01-03T05:02:43.266Z,100577.50
2023-01-03T05:05:12.413Z,100578.31
2023-01-03T05:07:41.046Z,100575.00
2023-01-03T05:10:10.378Z,100560.56
2023-01-03T05:12:40.407Z,100562.28
2023-01-03T05:15:10.766Z,100571.72
2023-01-03T05:17:39.365Z,100575.16
2023-01-03T05:20:27.026Z,100572.69
2023-01-03T05:23:13.256Z,100570.19
2023-01-03T05:25:53.744Z,100572.00
2023-01-03T05:28:25.127Z,100570.34
2023-01-03T05:30:53.822Z,100578.94
2023-01-03T05:33:22.466Z,100576.44
2023-01-03T05:35:51.141Z,100582.47
2023-01-03T05:38:20.025Z,100577.34
2023-01-03T05:40:48.666Z,100582.53
2023-01-03T05:43:17.528Z,100581.69
2023-01-03T05:45:52.279Z,100596.22
2023-01-03T05:48:22.238Z,100586.88
2023-01-03T05:50:52.336Z,100587.81
2023-01-03T05:53:21.040Z,100591.09
2023-01-03T05:55:49.674Z,100583.44
2023-01-03T05:58:18.403Z,100591.09
2023-01-03T06:00:48.475Z,100583.50
2023-01-03T06:03:17.137Z,100588.63
2023-01-03T06:05:50.127Z,100584.47
2023-01-03T06:08:19.335Z,100586.22
2023-01-03T06:10:47.999Z,100589.75
2023-01-03T06:13:16.799Z,100588.97
2023-01-03T06:16:05.495Z,100587.31
2023-01-03T06:18:35.240Z,100584.91
2023-01-03T06:21:04.898Z,100581.63
2023-01-03T06:23:33.603Z,100593.63
2023-01-03T06:26:04.924Z,100597.09
2023-01-03T06:28:34.063Z,100598.00
2023-01-03T06:31:05.914Z,100598.09
2023-01-03T06:33:36.356Z,100602.44
2023-01-03T06:36:06.410Z,100604.19
2023-01-03T06:38:35.800Z,100594.06
2023-01-03T06:41:04.889Z,100598.38
2023-01-03T06:43:33.715Z,100601.00
2023-01-03T06:46:20.496Z,100604.44
2023-01-03T06:49:07.841Z,100606.25
2023-01-03T06:51:54.301Z,100607.22
2023-01-03T06:54:27.319Z,100605.66
2023-01-03T06:56:56.289Z,100617.56
2023-01-03T06:59:25.673Z,100611.72
2023-01-03T07:01:55.743Z,100611.78
2023-01-03T07:04:26.883Z,100608.47
2023-01-03T07:06:56.075Z,100617.94
2023-01-03T07:09:25.303Z,100624.78
2023-01-03T07:11:53.915Z,100622.28
2023-01-03T07:14:21.553Z,100628.25
2023-01-03T07:16:50.643Z,100631.63
2023-01-03T07:19:21.288Z,100637.63
2023-01-03T07:21:51.304Z,100633.41
2023-01-03T07:24:20.013Z,100636.88
2023-01-03T07:26:48.619Z,100639.44
2023-01-03T07:29:17.211Z,100646.34
2023-01-03T07:31:45.869Z,100651.44
2023-01-03T07:34:14.666Z,100647.22
2023-01-03T07:36:43.344Z,100656.56
2023-01-03T07:39:13.409Z,100658.38
2023-01-03T07:41:59.545Z,100654.97
2023-01-03T07:44:28.489Z,100667.81
2023-01-03T07:46:57.138Z,100665.25
2023-01-03T07:49:25.732Z,100663.66
2023-01-03T07:51:54.623Z,100665.41
2023-01-03T07:54:24.667Z,100679.06
2023-01-03T07:56:53.256Z,100671.47
2023-01-03T07:59:27.007Z,100676.59
2023-01-03T08:01:55.802Z,100665.56
2023-01-03T08:04:24.629Z,100679.97
2023-01-03T08:06:59.809Z,100682.53
2023-01-03T08:09:49.955Z,100679.97
2023-01-03T08:12:36.151Z,100680.88
2023-01-03T08:15:11.906Z,100689.41
2023-01-03T08:17:42.589Z,100683.53
2023-01-03T08:20:11.630Z,100692.03
2023-01-03T08:22:46.188Z,100691.19
2023-01-03T08:25:18.604Z,100693.81
2023-01-03T08:27:50.351Z,100702.34
2023-01-03T08:30:20.680Z,100694.78
2023-01-03T08:32:49.418Z,100699.06
2023-01-03T08:35:50.543Z,100700.84
2023-01-03T08:38:27.158Z,100704.31
2023-01-03T08:40:58.474Z,100700.03
2023-01-03T08:43:27.275Z,100709.38
2023-01-03T08:45:56.050Z,100711.91
2023-01-03T08:48:25.466Z,100714.41
2023-01-03T08:50:54.203Z,100711.78
2023-01-03T08:53:24.450Z,100717.84
2023-01-03T08:55:53.178Z,100718.75
2023-01-03T08:58:23.291Z,100720.47
2023-01-03T09:00:51.920Z,100728.16
2023-01-03T09:03:20.726Z,100729.88
2023-01-03T09:05:49.454Z,100724.84
2023-01-03T09:08:18.550Z,100729.88
2023-01-03T09:10:48.339Z,100733.25
2023-01-03T09:13:16.965Z,100731.50
2023-01-03T09:15:46.947Z,100739.19
2023-01-03T09:18:15.918Z,100739.13
2023-01-03T09:20:44.529Z,100739.13
2023-01-03T09:23:13.254Z,100745.88
2023-01-03T09:25:41.952Z,100743.22
2023-01-03T09:28:10.554Z,100743.16
2023-01-03T09:30:39.222Z,100742.22
2023-01-03T09:33:10.692Z,100742.97
2023-01-03T09:35:40.117Z,100742.00
2023-01-03T09:38:08.864Z,100748.72
2023-01-03T09:40:42.485Z,100747.75
2023-01-03T09:43:24.731Z,100750.25
2023-01-03T09:45:58.630Z,100739.13
2023-01-03T09:48:34.663Z,100745.00
2023-01-03T09:51:19.516Z,100739.81
2023-01-03T09:54:08.560Z,100732.06
2023-01-03T09:56:54.401Z,100737.97
2023-01-03T09:59:40.930Z,100741.28
2023-01-03T10:02:51.708Z,100737.00
2023-01-03T10:05:52.327Z,100742.84
2023-01-03T10:08:40.120Z,100741.97
2023-01-03T10:11:11.478Z,100742.66
2023-01-03T10:14:02.352Z,100738.31
2023-01-03T10:16:43.398Z,100739.06
2023-01-03T10:19:39.392Z,100738.84
2023-01-03T10:22:13.064Z,100744.75
2023-01-03T10:24:47.937Z,100734.38
2023-01-03T10:27:19.332Z,100736.72
2023-01-03T10:29:49.566Z,100729.81
2023-01-03T10:32:35.193Z,100723.72
2023-01-03T10:35:20.436Z,100715.00
2023-01-03T10:37:53.358Z,100714.88
2023-01-03T10:40:23.193Z,100717.34
2023-01-03T10:42:55.454Z,100708.63
2023-01-03T10:45:24.340Z,100711.13
2023-01-03T10:48:00.591Z,100716.09
2023-01-03T10:50:30.653Z,100715.13
2023-01-03T10:53:06.478Z,100714.22
2023-01-03T10:55:36.884Z,100716.66
2023-01-03T10:58:18.908Z,100719.94
2023-01-03T11:00:47.619Z,100717.31
2023-01-03T11:03:19.829Z,100717.25
2023-01-03T11:05:51.473Z,100707.78
2023-01-03T11:08:24.632Z,100711.94
2023-01-03T11:10:59.150Z,100710.09
2023-01-03T11:13:34.890Z,100701.63
2023-01-03T11:16:12.339Z,100710.00
2023-01-03T11:18:44.425Z,100711.69
2023-01-03T11:21:23.343Z,100711.63
2023-01-03T11:24:10.011Z,100700.56
2023-01-03T11:26:56.855Z,100698.00
2023-01-03T11:29:49.787Z,100694.63
2023-01-03T11:32:30.958Z,100683.47
2023-01-03T11:35:35.973Z,100683.53
2023-01-03T11:38:19.331Z,100677.53
2023-01-03T11:41:03.906Z,100680.09
2023-01-03T11:44:00.098Z,100675.03
2023-01-03T11:46:52.407Z,100681.00
2023-01-03T11:49:30.630Z,100675.88
2023-01-03T11:52:20.429Z,100675.03
2023-01-03T11:55:31.187Z,100677.59
2023-01-03T11:58:22.007Z,100674.22
2023-01-03T12:01:02.253Z,100675.78
2023-01-03T12:03:51.844Z,100674.97
2023-01-03T12:06:29.091Z,100678.34
2023-01-03T12:09:15.013Z,100671.50
2023-01-03T12:12:25.304Z,100680.09
2023-01-03T12:15:00.887Z,100680.91
2023-01-03T12:17:40.867Z,100680.88
2023-01-03T12:20:18.237Z,100684.31
2023-01-03T12:22:53.326Z,100683.41
2023-01-03T12:25:28.798Z,100676.56
2023-01-03T12:28:11.534Z,100676.47
2023-01-03T12:30:48.404Z,100673.03
2023-01-03T12:33:30.962Z,100671.38
2023-01-03T12:36:05.691Z,100678.16
2023-01-03T12:38:40.357Z,100672.13
2023-01-03T12:41:23.484Z,100674.69
2023-01-03T12:43:59.030Z,100665.28
2023-01-03T12:46:35.723Z,100659.19
2023-01-03T12:49:11.922Z,100664.28
2023-01-03T12:51:40.523Z,100657.44
2023-01-03T12:54:27.833Z,100650.59
2023-01-03T12:57:25.877Z,100654.88
2023-01-03T13:00:29.062Z,100652.31
2023-01-03T13:03:03.377Z,100650.59
2023-01-03T13:05:38.619Z,100643.75
2023-01-03T13:08:13.559Z,100636.88
2023-01-03T13:10:48.706Z,100643.66
2023-01-03T13:13:20.210Z,100641.09
2023-01-03T13:15:49.441Z,100629.97
2023-01-03T13:18:34.185Z,100636.75
2023-01-03T13:21:03.199Z,100626.50
2023-01-03T13:23:38.018Z,100625.59
2023-01-03T13:26:22.460Z,100623.03
2023-01-03T13:28:51.783Z,100631.56
2023-01-03T13:31:40.577Z,100617.91
2023-01-03T13:34:34.076Z,100619.56
2023-01-03T13:37:19.059Z,100617.91
2023-01-03T13:40:34.697Z,100606.03
2023-01-03T13:43:19.815Z,100610.31
2023-01-03T13:45:55.224Z,100607.66
2023-01-03T13:48:38.317Z,100609.31
2023-01-03T13:51:50.677Z,100606.03
2023-01-03T13:54:57.796Z,100607.75
2023-01-03T13:57:53.351Z,100599.25
2023-01-03T14:00:24.371Z,100602.53
2023-01-03T14:03:33.218Z,100600.06
2023-01-03T14:06:46.477Z,100598.44
2023-01-03T14:09:54.448Z,100606.94
2023-01-03T14:13:17.789Z,100601.00
2023-01-03T14:15:48.111Z,100598.44
2023-01-03T14:18:22.716Z,100604.38
2023-01-03T14:20:54.516Z,100606.03
2023-01-03T14:26:19.448Z,100603.47
2023-01-03T14:28:50.429Z,100603.38
2023-01-03T14:31:23.489Z,100597.38
2023-01-03T14:33:57.294Z,100605.06
2023-01-03T14:36:26.562Z,100605.88
2023-01-03T14:38:58.741Z,100607.53
2023-01-03T14:41:32.423Z,100602.41
2023-01-03T14:44:07.799Z,100615.22
2023-01-03T14:46:42.764Z,100613.47
2023-01-03T14:49:22.231Z,100607.53
2023-01-03T14:51:50.999Z,100618.59
2023-01-03T14:54:21.677Z,100610.09
2023-01-03T14:56:50.623Z,100624.53
2023-01-03T14:59:23.530Z,100623.72
2023-01-03T15:01:52.833Z,100615.22
2023-01-03T15:04:21.626Z,100606.69
2023-01-03T15:07:04.837Z,100623.72
2023-01-03T15:09:39.577Z,100622.91
2023-01-03T15:12:08.511Z,100633.13
2023-01-03T15:14:39.549Z,100622.91
2023-01-03T15:17:16.395Z,100624.59
2023-01-03T15:19:51.763Z,100633.13
2023-01-03T15:22:23.874Z,100630.56
2023-01-03T15:25:04.533Z,100632.38
2023-01-03T15:27:44.487Z,100636.59
2023-01-03T15:30:27.582Z,100634.03
2023-01-03T15:33:03.270Z,100644.34
2023-01-03T15:35:38.106Z,100634.09
2023-01-03T15:38:18.450Z,100645.25
2023-01-03T15:40:51.403Z,100647.00
2023-01-03T15:43:23.526Z,100653.75
2023-01-03T15:46:02.883Z,100662.34
2023-01-03T15:48:36.004Z,100666.63
2023-01-03T15:51:06.655Z,100655.56
2023-01-03T15:53:43.820Z,100660.69
2023-01-03T15:56:19.782Z,100662.44
2023-01-03T15:58:52.766Z,100668.38
2023-01-03T16:01:22.754Z,100659.03
2023-01-03T16:03:54.243Z,100668.38
2023-01-03T16:06:23.745Z,100666.69
2023-01-03T16:08:52.969Z,100669.25
2023-01-03T16:11:33.794Z,100679.50
2023-01-03T16:14:06.248Z,100669.25
2023-01-03T16:16:39.808Z,100677.81
2023-01-03T16:19:11.723Z,100680.38
2023-01-03T16:21:40.343Z,100666.78
2023-01-03T16:24:10.827Z,100670.16
2023-01-03T16:26:40.805Z,100671.91
2023-01-03T16:29:09.497Z,100662.47
2023-01-03T16:31:38.399Z,100665.03
2023-01-03T16:34:09.136Z,100678.69
2023-01-03T16:36:39.783Z,100669.34
2023-01-03T16:39:16.419Z,100665.88
2023-01-03T16:42:07.677Z,100677.81
2023-01-03T16:44:39.219Z,100683.03
2023-01-03T16:47:13.352Z,100681.31
2023-01-03T16:49:43.723Z,100677.91
2023-01-03T16:52:17.173Z,100683.03
2023-01-03T16:54:46.048Z,100685.59
2023-01-03T16:57:21.276Z,100681.31
2023-01-03T16:59:50.895Z,100689.88
2023-01-03T17:02:19.699Z,100685.59
2023-01-03T17:04:48.614Z,100695.00
2023-01-03T17:07:23.059Z,100689.03
2023-01-03T17:09:53.187Z,100692.53
2023-01-03T17:12:24.685Z,100691.69
2023-01-03T17:14:54.000Z,100687.50
2023-01-03T17:17:24.463Z,100687.53
2023-01-03T17:20:08.488Z,100682.41
2023-01-03T17:22:37.211Z,100683.34
2023-01-03T17:25:06.532Z,100675.75
2023-01-03T17:27:37.078Z,100679.13
2023-01-03T17:30:08.705Z,100683.41
2023-01-03T17:32:37.374Z,100692.00
2023-01-03T17:35:07.188Z,100698.81
2023-01-03T17:37:51.886Z,100700.56
2023-01-03T17:40:33.148Z,100703.13
2023-01-03T17:43:03.836Z,100698.91
2023-01-03T17:45:49.965Z,100698.09
2023-01-03T17:48:36.681Z,100702.38
2023-01-03T17:51:05.982Z,100698.97
2023-01-03T17:53:34.702Z,100697.31
2023-01-03T17:56:03.410Z,100693.13
2023-01-03T17:58:36.535Z,100700.78
2023-01-03T18:01:08.124Z,100697.38
2023-01-03T18:03:37.424Z,100699.06
2023-01-03T18:06:11.865Z,100697.38
2023-01-03T18:08:42.188Z,100694.81
2023-01-03T18:11:17.986Z,100697.38
2023-01-03T18:13:50.096Z,100701.78
2023-01-03T18:16:21.031Z,100714.56
2023-01-03T18:18:50.713Z,100719.69
2023-01-03T18:21:23.037Z,100706.13
2023-01-03T18:23:56.935Z,100711.22
2023-01-03T18:26:33.947Z,100704.44
2023-01-03T18:29:05.374Z,100714.69
2023-01-03T18:31:34.296Z,100707.94
2023-01-03T18:34:04.477Z,100703.72
2023-01-03T18:36:40.050Z,100702.88
2023-01-03T18:39:14.314Z,100704.59
2023-01-03T18:41:44.228Z,100702.94
2023-01-03T18:44:21.499Z,100705.50
2023-01-03T18:46:50.528Z,100699.63
2023-01-03T18:49:20.038Z,100696.25
2023-01-03T18:51:53.455Z,100692.84
2023-01-03T18:54:22.105Z,100695.41
2023-01-03T18:56:51.409Z,100693.72
2023-01-03T18:59:25.503Z,100701.41
2023-01-03T19:01:55.252Z,100699.78
2023-01-03T19:04:23.975Z,100695.56
2023-01-03T19:06:53.008Z,100705.81
2023-01-03T19:09:24.757Z,100706.69
2023-01-03T19:11:55.056Z,100703.31
2023-01-03T19:14:25.139Z,100706.75
2023-01-03T19:16:53.792Z,100708.50
2023-01-03T19:19:22.365Z,100702.53
2023-01-03T19:21:51.018Z,100705.19
2023-01-03T19:24:25.187Z,100700.06
2023-01-03T19:26:56.391Z,100697.56
2023-01-03T19:29:36.557Z,100686.53
2023-01-03T19:32:10.894Z,100689.97
2023-01-03T19:34:39.502Z,100688.31
2023-01-03T19:37:10.158Z,100698.63
2023-01-03T19:39:39.016Z,100689.22
2023-01-03T19:42:31.219Z,100699.44
2023-01-03T19:45:02.531Z,100702.06
2023-01-03T19:47:31.217Z,100696.13
2023-01-03T19:50:07.755Z,100691.91
2023-01-03T19:52:39.726Z,100680.88
2023-01-03T19:55:10.580Z,100689.44
2023-01-03T19:57:41.277Z,100690.41
2023-01-03T20:00:20.614Z,100677.69
2023-01-03T20:02:51.782Z,100686.25
2023-01-03T20:05:23.157Z,100676.09
2023-01-03T20:07:52.542Z,100677.00
2023-01-03T20:10:23.661Z,100674.44
2023-01-03T20:12:55.407Z,100669.38
2023-01-03T20:15:28.192Z,100671.13
2023-01-03T20:17:57.107Z,100670.34
2023-01-03T20:20:30.815Z,100669.53
2023-01-03T20:23:07.335Z,100661.94
2023-01-03T20:25:38.071Z,100668.84
2023-01-03T20:28:07.437Z,100666.28
2023-01-03T20:30:38.872Z,100668.84
2023-01-03T20:33:07.545Z,100655.25
2023-01-03T20:36:09.700Z,100652.69
2023-01-03T20:38:27.479Z,100651.09
2023-01-03T20:40:57.668Z,100648.53
2023-01-03T20:43:26.696Z,100651.09
2023-01-03T20:45:59.131Z,100651.09
2023-01-03T20:48:27.750Z,100657.09
2023-01-03T20:50:56.524Z,100640.94
2023-01-03T20:53:27.596Z,100651.16
2023-01-03T20:55:56.247Z,100647.75
2023-01-03T20:58:26.448Z,100644.38
2023-01-03T21:01:04.257Z,100639.34
2023-01-03T21:03:35.470Z,100635.13
2023-01-03T21:06:07.548Z,100635.13
2023-01-03T21:08:53.645Z,100645.34
2023-01-03T21:11:23.305Z,100639.50
2023-01-03T21:13:51.916Z,100638.66
2023-01-03T21:16:34.068Z,100632.72
2023-01-03T21:19:06.845Z,100631.94
2023-01-03T21:21:36.128Z,100631.94
2023-01-03T21:24:06.893Z,100629.41
2023-01-03T21:26:35.690Z,100625.22
2023-01-03T21:29:04.603Z,100624.34
2023-01-03T21:31:36.197Z,100613.31
2023-01-03T21:34:06.105Z,100614.13
2023-01-03T21:36:36.819Z,100615.88
2023-01-03T21:39:06.440Z,100606.53
2023-01-03T21:41:56.903Z,100614.19
2023-01-03T21:44:25.565Z,100613.38
2023-01-03T21:46:55.636Z,100615.09
2023-01-03T21:49:24.299Z,100625.31
2023-01-03T21:51:53.055Z,100614.28
2023-01-03T21:54:21.777Z,100616.03
2023-01-03T21:56:50.499Z,100613.47
2023-01-03T21:59:19.304Z,100613.47
2023-01-03T22:02:17.230Z,100613.59
2023-01-03T22:04:47.268Z,100611.91
2023-01-03T22:07:15.870Z,100606.81
2023-01-03T22:10:02.106Z,100611.91
2023-01-03T22:12:30.715Z,100608.63
2023-01-03T22:14:59.352Z,100600.13
2023-01-03T22:17:27.987Z,100595.84
2023-01-03T22:19:58.206Z,100590.81
2023-01-03T22:22:26.817Z,100580.56
2023-01-03T22:24:55.442Z,100570.34
2023-01-03T22:27:24.107Z,100578.84
2023-01-03T22:29:52.935Z,100582.28
2023-01-03T22:32:24.665Z,100590.88
2023-01-03T22:34:53.411Z,100600.19
2023-01-03T22:37:23.544Z,100601.03
2023-01-03T22:39:52.918Z,100600.19
2023-01-03T22:42:21.670Z,100609.66
2023-01-03T22:44:50.352Z,100613.88
2023-01-03T22:47:18.953Z,100613.88
2023-01-03T22:49:47.705Z,100613.88
2023-01-03T22:52:16.372Z,100620.63
2023-01-03T22:54:46.480Z,100623.19
2023-01-03T22:57:15.236Z,100608.78
2023-01-03T22:59:43.909Z,100614.69
2023-01-03T23:02:12.618Z,100608.78
2023-01-03T23:04:41.365Z,100607.03
2023-01-03T23:07:10.060Z,100603.66
2023-01-03T23:09:38.750Z,100605.28
2023-01-03T23:12:26.101Z,100595.91
2023-01-03T23:14:54.825Z,100588.31
2023-01-03T23:17:41.044Z,100585.75
2023-01-03T23:20:11.368Z,100595.13
2023-01-03T23:22:39.966Z,100583.22
2023-01-03T23:25:09.137Z,100570.44
2023-01-03T23:27:39.229Z,100578.91
2023-01-03T23:30:09.799Z,100572.06
2023-01-03T23:32:38.458Z,100576.28
2023-01-03T23:35:08.230Z,100572.91
2023-01-03T23:37:36.865Z,100571.16
2023-01-03T23:40:06.669Z,100565.25
2023-01-03T23:42:35.351Z,100558.38
2023-01-03T23:45:07.333Z,100560.94
2023-01-03T23:47:36.014Z,100560.94
2023-01-03T23:50:04.993Z,100553.34
2023-01-03T23:52:35.214Z,100550.78
2023-01-03T23:55:10.362Z,100539.81
2023-01-03T23:57:40.933Z,100546.66
